createdAt,value
2019-05-13T00:01:34.498Z,98280.13
2019-05-13T00:04:00.488Z,98280.66
2019-05-13T00:06:26.346Z,98277.23
2019-05-13T00:08:54.295Z,98281.70
2019-05-13T00:11:39.819Z,98269.03
2019-05-13T00:14:25.538Z,98278.53
2019-05-13T00:16:53.496Z,98278.53
2019-05-13T00:19:39.029Z,98274.03
2019-05-13T00:22:04.898Z,98272.45
2019-05-13T00:24:30.838Z,98272.45
2019-05-13T00:26:56.697Z,98274.03
2019-05-13T00:29:23.472Z,98280.36
2019-05-13T00:31:50.305Z,98280.89
2019-05-13T00:34:16.155Z,98280.89
2019-05-13T00:36:44.351Z,98275.07
2019-05-13T00:39:09.869Z,98278.23
2019-05-13T00:41:35.709Z,98276.91
2019-05-13T00:44:44.346Z,98281.09
2019-05-13T00:47:13.143Z,98279.02
2019-05-13T00:49:38.855Z,98283.77
2019-05-13T00:52:04.695Z,98274.02
2019-05-13T00:54:30.870Z,98281.89
2019-05-13T00:56:56.700Z,98291.41
2019-05-13T00:59:24.247Z,98291.11
2019-05-13T01:01:50.346Z,98283.47
2019-05-13T01:04:16.209Z,98283.47
2019-05-13T01:06:43.550Z,98290.58
2019-05-13T01:09:29.670Z,98291.06
2019-05-13T01:12:15.375Z,98287.68
2019-05-13T01:14:43.164Z,98287.68
2019-05-13T01:17:28.849Z,98291.86
2019-05-13T01:19:54.805Z,98291.86
2019-05-13T01:22:20.647Z,98287.41
2019-05-13T01:24:46.514Z,98287.91
2019-05-13T01:27:14.011Z,98290.54
2019-05-13T01:29:40.124Z,98297.12
2019-05-13T01:32:05.974Z,98296.77
2019-05-13T01:34:33.846Z,98299.39
2019-05-13T01:37:19.477Z,98299.17
2019-05-13T01:40:05.317Z,98295.97
2019-05-13T01:42:33.535Z,98295.97
2019-05-13T01:44:58.918Z,98299.05
2019-05-13T01:47:24.757Z,98299.52
2019-05-13T01:49:50.619Z,98301.69
2019-05-13T01:52:16.553Z,98306.42
2019-05-13T01:54:44.198Z,98308.51
2019-05-13T01:57:30.043Z,98312.45
2019-05-13T01:59:55.902Z,98312.45
2019-05-13T02:02:24.116Z,98310.83
2019-05-13T02:04:49.519Z,98304.51
2019-05-13T02:07:15.375Z,98311.55
2019-05-13T02:12:28.709Z,98312.32
2019-05-13T02:14:54.636Z,98313.55
2019-05-13T02:17:20.492Z,98308.64
2019-05-13T02:19:46.331Z,98316.98
2019-05-13T02:22:14.416Z,98316.45
2019-05-13T02:24:40.030Z,98316.36
2019-05-13T02:27:05.893Z,98317.67
2019-05-13T02:29:34.206Z,98323.20
2019-05-13T02:32:02.817Z,98317.41
2019-05-13T02:34:27.272Z,98321.04
2019-05-13T02:36:53.147Z,98318.88
2019-05-13T02:39:22.120Z,98318.34
2019-05-13T02:41:46.944Z,98321.32
2019-05-13T02:44:12.787Z,98325.10
2019-05-13T02:46:38.676Z,98320.69
2019-05-13T02:49:04.506Z,98324.55
2019-05-13T02:51:32.857Z,98331.13
2019-05-13T02:53:58.207Z,98328.06
2019-05-13T02:56:24.110Z,98329.27
2019-05-13T02:58:52.608Z,98333.11
2019-05-13T03:01:17.871Z,98330.97
2019-05-13T03:03:44.534Z,98332.02
2019-05-13T03:06:13.309Z,98327.16
2019-05-13T03:08:48.800Z,98327.16
2019-05-13T03:11:07.321Z,98328.72
2019-05-13T03:13:33.361Z,98336.47
2019-05-13T03:16:19.146Z,98335.34
2019-05-13T03:18:45.122Z,98333.27
2019-05-13T03:21:12.803Z,98336.39
2019-05-13T03:23:38.820Z,98332.95
2019-05-13T03:26:04.751Z,98337.13
2019-05-13T03:28:33.666Z,98338.20
2019-05-13T03:30:58.467Z,98336.47
2019-05-13T03:33:28.023Z,98347.61
2019-05-13T03:35:55.681Z,98343.58
2019-05-13T03:39:09.830Z,98349.64
2019-05-13T03:42:12.292Z,98352.81
2019-05-13T03:45:21.955Z,98363.66
2019-05-13T03:48:29.625Z,98360.98
2019-05-13T03:51:37.106Z,98369.78
2019-05-13T03:56:57.559Z,98374.14
2019-05-13T03:59:23.497Z,98378.23
2019-05-13T04:01:52.418Z,98374.02
2019-05-13T04:04:17.198Z,98377.92
2019-05-13T04:06:43.213Z,98381.50
2019-05-13T04:09:25.039Z,98386.38
2019-05-13T04:12:18.473Z,98384.60
2019-05-13T04:15:04.347Z,98387.70
2019-05-13T04:20:45.554Z,98390.64
2019-05-13T04:23:12.875Z,98397.77
2019-05-13T04:26:23.621Z,98393.26
2019-05-13T04:28:48.649Z,98396.22
2019-05-13T04:31:14.836Z,98411.44
2019-05-13T04:33:42.923Z,98409.17
2019-05-13T04:36:13.256Z,98414.75
2019-05-13T04:38:38.028Z,98415.43
2019-05-13T04:41:45.540Z,98405.78
2019-05-13T04:44:32.387Z,98412.62
2019-05-13T04:46:59.278Z,98423.20
2019-05-13T04:49:25.210Z,98425.91
2019-05-13T04:52:13.539Z,98422.87
2019-05-13T04:54:39.562Z,98416.04
2019-05-13T04:57:05.524Z,98427.30
2019-05-13T04:59:34.070Z,98422.55
2019-05-13T05:02:49.034Z,98420.64
2019-05-13T05:05:52.657Z,98426.96
2019-05-13T05:08:57.679Z,98429.19
2019-05-13T05:12:03.295Z,98429.75
2019-05-13T05:15:11.989Z,98433.50
2019-05-13T05:18:16.340Z,98428.95
2019-05-13T05:21:23.817Z,98433.89
2019-05-13T05:24:29.402Z,98435.97
2019-05-13T05:27:34.996Z,98437.09
2019-05-13T05:30:41.215Z,98429.41
2019-05-13T05:33:48.763Z,98437.95
2019-05-13T05:36:56.251Z,98442.80
2019-05-13T05:39:42.128Z,98442.09
2019-05-13T05:42:51.735Z,98447.64
2019-05-13T05:45:17.570Z,98448.84
2019-05-13T05:48:25.043Z,98452.88
2019-05-13T05:50:51.650Z,98453.75
2019-05-13T05:54:02.494Z,98451.02
2019-05-13T06:00:26.779Z,98443.76
2019-05-13T06:03:34.227Z,98460.63
2019-05-13T06:06:41.739Z,98457.20
2019-05-13T06:09:07.646Z,98454.30
2019-05-13T06:12:15.132Z,98459.66
2019-05-13T06:15:22.682Z,98458.99
2019-05-13T06:17:48.505Z,98466.34
2019-05-13T06:20:14.454Z,98466.41
2019-05-13T06:22:42.475Z,98470.62
2019-05-13T06:25:52.393Z,98471.15
2019-05-13T06:28:17.656Z,98479.33
2019-05-13T06:30:43.602Z,98465.27
2019-05-13T06:33:51.538Z,98476.33
2019-05-13T06:36:17.424Z,98474.47
2019-05-13T06:38:43.603Z,98471.11
2019-05-13T06:41:14.047Z,98475.23
2019-05-13T06:43:37.420Z,98472.97
2019-05-13T06:46:03.324Z,98473.30
2019-05-13T06:48:29.155Z,98471.14
2019-05-13T06:50:54.986Z,98463.80
2019-05-13T06:53:21.720Z,98471.44
2019-05-13T06:55:48.730Z,98477.57
2019-05-13T06:58:14.730Z,98484.44
2019-05-13T07:01:22.232Z,98474.02
2019-05-13T07:04:08.080Z,98467.63
2019-05-13T07:07:08.954Z,98460.45
2019-05-13T07:09:21.775Z,98460.45
2019-05-13T07:11:47.678Z,98459.48
2019-05-13T07:14:13.579Z,98452.53
2019-05-13T07:16:41.981Z,98459.28
2019-05-13T07:19:27.270Z,98465.12
2019-05-13T07:21:53.345Z,98465.12
2019-05-13T07:24:41.290Z,98459.17
2019-05-13T07:27:26.832Z,98464.91
2019-05-13T07:30:12.511Z,98466.67
2019-05-13T07:32:38.479Z,98466.67
2019-05-13T07:35:26.115Z,98463.70
2019-05-13T07:37:52.077Z,98468.03
2019-05-13T07:40:18.055Z,98455.23
2019-05-13T07:42:43.952Z,98458.30
2019-05-13T07:45:12.161Z,98465.97
2019-05-13T07:50:13.365Z,98479.39
2019-05-13T07:52:41.893Z,98477.28
2019-05-13T07:55:22.273Z,98468.50
2019-05-13T07:58:02.235Z,98455.31
2019-05-13T08:00:28.274Z,98455.31
2019-05-13T08:02:54.097Z,98468.48
2019-05-13T08:05:22.217Z,98471.99
2019-05-13T08:07:47.746Z,98455.64
2019-05-13T08:10:13.906Z,98455.64
2019-05-13T08:12:41.290Z,98470.45
2019-05-13T08:15:49.146Z,98468.33
2019-05-13T08:18:34.903Z,98451.31
2019-05-13T08:21:02.102Z,98451.31
2019-05-13T08:23:28.696Z,98467.00
2019-05-13T08:25:54.652Z,98461.66
2019-05-13T08:28:22.535Z,98455.39
2019-05-13T08:30:48.366Z,98469.94
2019-05-13T08:33:34.177Z,98453.34
2019-05-13T08:36:01.648Z,98456.77
2019-05-13T08:38:28.016Z,98462.63
2019-05-13T08:40:53.985Z,98462.63
2019-05-13T08:43:22.382Z,98457.77
2019-05-13T08:45:47.701Z,98461.37
2019-05-13T08:48:13.759Z,98446.66
2019-05-13T08:53:53.854Z,98457.97
2019-05-13T08:56:32.771Z,98446.51
2019-05-13T08:59:01.065Z,98446.51
2019-05-13T09:01:26.706Z,98453.49
2019-05-13T09:04:12.541Z,98464.05
2019-05-13T09:06:58.261Z,98464.64
2019-05-13T09:09:24.116Z,98464.64
2019-05-13T09:11:51.580Z,98459.84
2019-05-13T09:14:17.898Z,98443.36
2019-05-13T09:16:43.729Z,98450.34
2019-05-13T09:19:13.545Z,98451.42
2019-05-13T09:21:37.558Z,98464.64
2019-05-13T09:24:20.367Z,98457.27
2019-05-13T09:26:31.734Z,98461.72
2019-05-13T09:29:19.139Z,98462.39
2019-05-13T09:31:45.094Z,98462.39
2019-05-13T09:34:12.229Z,98462.00
2019-05-13T09:36:38.775Z,98456.52
2019-05-13T09:39:46.269Z,98445.14
2019-05-13T09:42:12.834Z,98444.06
2019-05-13T09:44:41.957Z,98442.39
2019-05-13T09:47:07.657Z,98443.84
2019-05-13T09:49:33.496Z,98433.35
2019-05-13T09:52:01.561Z,98432.89
2019-05-13T09:54:27.102Z,98444.91
2019-05-13T09:56:52.968Z,98444.91
2019-05-13T09:59:18.825Z,98436.63
2019-05-13T10:01:44.690Z,98434.94
2019-05-13T10:04:11.946Z,98428.93
2019-05-13T10:06:58.368Z,98422.92
2019-05-13T10:09:24.239Z,98422.92
2019-05-13T10:11:51.947Z,98423.87
2019-05-13T10:14:17.943Z,98429.67
2019-05-13T10:16:43.788Z,98427.27
2019-05-13T10:19:12.364Z,98429.55
2019-05-13T10:21:37.680Z,98432.36
2019-05-13T10:24:03.720Z,98430.27
2019-05-13T10:26:32.044Z,98421.52
2019-05-13T10:28:57.624Z,98425.93
2019-05-13T10:31:23.476Z,98418.02
2019-05-13T10:33:51.297Z,98426.00
2019-05-13T10:36:17.145Z,98430.23
2019-05-13T10:38:43.080Z,98428.20
2019-05-13T10:41:11.780Z,98430.37
2019-05-13T10:43:56.571Z,98415.77
2019-05-13T10:46:42.784Z,98429.55
2019-05-13T10:49:08.651Z,98429.55
2019-05-13T10:51:34.606Z,98411.09
2019-05-13T10:54:02.574Z,98409.94
2019-05-13T10:56:28.546Z,98409.17
2019-05-13T10:58:54.372Z,98404.19
2019-05-13T11:01:22.524Z,98401.77
2019-05-13T11:03:48.170Z,98414.17
2019-05-13T11:06:14.125Z,98413.45
2019-05-13T11:08:42.275Z,98400.63
2019-05-13T11:11:07.802Z,98400.37
2019-05-13T11:13:50.513Z,98406.24
2019-05-13T11:16:02.435Z,98398.47
2019-05-13T11:18:29.362Z,98405.06
2019-05-13T11:20:55.214Z,98388.19
2019-05-13T11:23:23.279Z,98400.16
2019-05-13T11:26:08.656Z,98383.65
2019-05-13T11:28:34.727Z,98383.65
2019-05-13T11:31:22.412Z,98372.56
2019-05-13T11:33:48.308Z,98369.80
2019-05-13T11:36:18.927Z,98377.63
2019-05-13T11:38:43.378Z,98380.59
2019-05-13T11:41:11.842Z,98371.95
2019-05-13T11:43:37.626Z,98373.56
2019-05-13T11:46:23.357Z,98389.27
2019-05-13T11:48:51.705Z,98382.09
2019-05-13T11:51:17.058Z,98385.91
2019-05-13T11:53:42.908Z,98375.16
2019-05-13T11:56:09.274Z,98376.75
2019-05-13T11:58:36.499Z,98371.03
2019-05-13T12:03:43.480Z,98375.69
2019-05-13T12:06:07.954Z,98369.23
2019-05-13T12:08:34.432Z,98373.30
2019-05-13T12:11:04.065Z,98373.33
2019-05-13T12:13:29.436Z,98365.34
2019-05-13T12:15:55.272Z,98369.41
2019-05-13T12:18:23.675Z,98365.25
2019-05-13T12:20:53.596Z,98364.33
2019-05-13T12:23:17.290Z,98357.25
2019-05-13T12:25:43.954Z,98350.05
2019-05-13T12:28:11.539Z,98342.16
2019-05-13T12:30:39.297Z,98341.25
2019-05-13T12:33:06.957Z,98337.72
2019-05-13T12:35:32.977Z,98357.67
2019-05-13T12:37:58.899Z,98356.66
2019-05-13T12:43:13.466Z,98359.65
2019-05-13T12:45:43.095Z,98356.56
2019-05-13T12:48:07.886Z,98354.84
2019-05-13T12:50:33.808Z,98349.78
2019-05-13T12:53:02.490Z,98355.09
2019-05-13T12:55:27.437Z,98348.86
2019-05-13T12:57:53.313Z,98347.40
2019-05-13T13:01:01.594Z,98345.50
2019-05-13T13:03:28.605Z,98339.27
2019-05-13T13:06:21.148Z,98337.64
2019-05-13T13:08:38.695Z,98337.72
2019-05-13T13:10:53.396Z,98340.33
2019-05-13T13:13:18.021Z,98332.47
2019-05-13T13:15:48.644Z,98341.80
2019-05-13T13:18:14.310Z,98339.01
2019-05-13T13:20:42.223Z,98345.73
2019-05-13T13:23:08.081Z,98334.13
2019-05-13T13:25:34.059Z,98332.52
2019-05-13T13:28:10.550Z,98336.00
2019-05-13T13:31:09.301Z,98334.67
2019-05-13T13:33:35.196Z,98330.45
2019-05-13T13:36:04.950Z,98327.05
2019-05-13T13:38:28.802Z,98330.28
2019-05-13T13:40:54.647Z,98324.77
2019-05-13T13:43:25.044Z,98325.88
2019-05-13T13:46:11.693Z,98326.73
2019-05-13T13:48:16.288Z,98317.30
2019-05-13T13:53:27.949Z,98315.97
2019-05-13T13:55:55.984Z,98309.84
2019-05-13T13:58:25.479Z,98309.70
2019-05-13T14:01:01.866Z,98307.23
2019-05-13T14:03:17.379Z,98312.38
2019-05-13T14:05:43.339Z,98311.41
2019-05-13T14:08:09.217Z,98309.53
2019-05-13T14:10:35.187Z,98309.07
2019-05-13T14:13:04.647Z,98307.55
2019-05-13T14:15:31.227Z,98296.19
2019-05-13T14:17:56.599Z,98300.42
2019-05-13T14:20:22.581Z,98305.05
2019-05-13T14:22:48.422Z,98303.75
2019-05-13T14:28:02.809Z,98300.87
2019-05-13T14:30:31.264Z,98292.99
2019-05-13T14:32:58.316Z,98292.89
2019-05-13T14:35:24.284Z,98302.06
2019-05-13T14:37:51.847Z,98289.48
2019-05-13T14:40:18.513Z,98292.40
2019-05-13T14:42:44.375Z,98293.42
2019-05-13T14:45:52.265Z,98294.53
2019-05-13T14:48:18.216Z,98304.98
2019-05-13T14:50:44.107Z,98297.94
2019-05-13T14:53:09.986Z,98291.04
2019-05-13T14:55:35.915Z,98288.55
2019-05-13T14:58:02.160Z,98287.49
2019-05-13T15:01:17.620Z,98286.19
2019-05-13T15:03:57.434Z,98291.43
2019-05-13T15:06:23.425Z,98291.26
2019-05-13T15:08:49.268Z,98295.75
2019-05-13T15:11:15.247Z,98293.42
2019-05-13T15:13:42.529Z,98296.88
2019-05-13T15:19:03.222Z,98291.43
2019-05-13T15:21:29.138Z,98297.42
2019-05-13T15:23:55.122Z,98287.45
2019-05-13T15:29:35.028Z,98292.47
2019-05-13T15:32:02.076Z,98293.77
2019-05-13T15:35:13.478Z,98298.09
2019-05-13T15:38:23.217Z,98287.24
2019-05-13T15:40:49.177Z,98291.76
2019-05-13T15:43:15.277Z,98297.51
2019-05-13T15:45:42.500Z,98290.31
2019-05-13T15:48:11.466Z,98294.24
2019-05-13T15:50:36.691Z,98285.24
2019-05-13T15:53:04.554Z,98294.16
2019-05-13T15:55:30.526Z,98293.00
2019-05-13T15:57:56.507Z,98296.66
2019-05-13T16:03:29.912Z,98302.13
2019-05-13T16:05:55.768Z,98296.36
2019-05-13T16:11:15.118Z,98285.94
2019-05-13T16:13:42.834Z,98291.58
2019-05-13T16:16:08.689Z,98297.20
2019-05-13T16:18:35.108Z,98287.59
2019-05-13T16:21:01.750Z,98287.30
2019-05-13T16:23:28.950Z,98294.95
2019-05-13T16:26:14.924Z,98290.80
2019-05-13T16:28:41.809Z,98289.78
2019-05-13T16:31:11.794Z,98286.27
2019-05-13T16:33:37.281Z,98289.70
2019-05-13T16:36:03.162Z,98294.58
2019-05-13T16:38:49.017Z,98288.44
2019-05-13T16:41:56.736Z,98291.18
2019-05-13T16:47:36.125Z,98291.36
2019-05-13T16:50:43.643Z,98291.36
2019-05-13T16:53:31.457Z,98306.45
2019-05-13T16:55:57.184Z,98304.70
2019-05-13T16:58:24.855Z,98304.70
2019-05-13T17:01:32.997Z,98313.30
2019-05-13T17:04:18.823Z,98298.11
2019-05-13T17:06:44.697Z,98311.63
2019-05-13T17:09:11.542Z,98311.63
2019-05-13T17:11:38.587Z,98303.42
2019-05-13T17:14:05.894Z,98314.31
2019-05-13T17:16:32.495Z,98314.47
2019-05-13T17:19:18.377Z,98317.84
2019-05-13T17:24:16.892Z,98314.28
2019-05-13T17:26:42.863Z,98306.77
2019-05-13T17:29:08.684Z,98307.58
2019-05-13T17:31:34.553Z,98313.88
2019-05-13T17:34:01.528Z,98308.70
2019-05-13T17:36:48.241Z,98306.34
2019-05-13T17:39:33.968Z,98317.53
2019-05-13T17:42:21.498Z,98312.27
2019-05-13T17:45:07.301Z,98314.00
2019-05-13T17:47:53.185Z,98314.00
2019-05-13T17:50:19.205Z,98311.84
2019-05-13T17:53:05.143Z,98317.97
2019-05-13T17:55:44.901Z,98326.06
2019-05-13T17:58:23.976Z,98327.61
2019-05-13T18:00:52.008Z,98327.61
2019-05-13T18:03:17.730Z,98330.61
2019-05-13T18:05:43.616Z,98332.82
2019-05-13T18:08:11.294Z,98325.33
2019-05-13T18:10:57.323Z,98328.73
2019-05-13T18:13:43.744Z,98326.27
2019-05-13T18:16:12.549Z,98326.27
2019-05-13T18:18:43.994Z,98318.23
2019-05-13T18:21:06.464Z,98318.23
2019-05-13T18:23:32.550Z,98335.89
2019-05-13T18:25:58.447Z,98335.50
2019-05-13T18:28:30.556Z,98327.53
2019-05-13T18:30:52.127Z,98331.05
2019-05-13T18:33:17.980Z,98331.05
2019-05-13T18:35:43.869Z,98335.98
2019-05-13T18:38:11.738Z,98330.66
2019-05-13T18:40:37.491Z,98328.86
2019-05-13T18:43:03.396Z,98325.58
2019-05-13T18:45:29.236Z,98335.93
2019-05-13T18:48:15.017Z,98330.73
2019-05-13T18:51:01.345Z,98337.10
2019-05-13T18:53:27.306Z,98325.99
2019-05-13T18:55:53.256Z,98332.34
2019-05-13T18:58:19.153Z,98336.05
2019-05-13T19:00:45.188Z,98335.41
2019-05-13T19:03:13.243Z,98340.45
2019-05-13T19:05:59.010Z,98337.37
2019-05-13T19:08:24.858Z,98337.37
2019-05-13T19:10:52.233Z,98340.58
2019-05-13T19:13:18.513Z,98340.34
2019-05-13T19:16:04.346Z,98340.30
2019-05-13T19:18:32.018Z,98334.01
2019-05-13T19:20:58.088Z,98331.72
2019-05-13T19:23:23.965Z,98332.05
2019-05-13T19:25:51.342Z,98338.97
2019-05-13T19:28:17.743Z,98339.23
2019-05-13T19:31:03.596Z,98336.10
2019-05-13T19:33:49.334Z,98334.69
2019-05-13T19:36:35.079Z,98330.52
2019-05-13T19:39:01.828Z,98330.52
2019-05-13T19:41:28.711Z,98335.76
2019-05-13T19:43:54.587Z,98341.55
2019-05-13T19:46:20.517Z,98343.19
2019-05-13T19:48:46.379Z,98337.64
2019-05-13T19:51:12.211Z,98332.33
2019-05-13T19:53:38.078Z,98323.93
2019-05-13T19:56:04.175Z,98324.97
2019-05-13T19:58:49.896Z,98320.14
2019-05-13T20:01:15.855Z,98320.14
2019-05-13T20:03:42.416Z,98321.55
2019-05-13T20:06:09.479Z,98313.22
2019-05-13T20:08:35.330Z,98313.22
2019-05-13T20:11:02.075Z,98311.81
2019-05-13T20:13:28.935Z,98313.66
2019-05-13T20:15:54.881Z,98313.70
2019-05-13T20:18:22.944Z,98309.17
2019-05-13T20:21:10.457Z,98311.67
2019-05-13T20:23:36.482Z,98311.67
2019-05-13T20:26:02.419Z,98316.87
2019-05-13T20:28:28.249Z,98315.75
2019-05-13T20:30:54.113Z,98312.92
2019-05-13T20:33:22.016Z,98311.78
2019-05-13T20:35:47.707Z,98314.84
2019-05-13T20:38:13.561Z,98312.14
2019-05-13T20:40:41.392Z,98303.53
2019-05-13T20:43:07.183Z,98301.75
2019-05-13T20:46:14.669Z,98303.91
2019-05-13T20:48:41.149Z,98299.70
2019-05-13T20:51:08.367Z,98302.41
2019-05-13T20:53:34.217Z,98290.22
2019-05-13T20:56:01.802Z,98298.71
2019-05-13T20:58:27.829Z,98299.06
2019-05-13T21:00:53.663Z,98295.58
2019-05-13T21:03:19.505Z,98297.40
2019-05-13T21:05:45.349Z,98297.53
2019-05-13T21:08:11.189Z,98293.76
2019-05-13T21:10:37.132Z,98289.20
2019-05-13T21:13:03.063Z,98288.10
2019-05-13T21:15:28.912Z,98285.28
2019-05-13T21:17:54.749Z,98279.33
2019-05-13T21:20:25.553Z,98279.89
2019-05-13T21:22:48.370Z,98274.36
2019-05-13T21:25:14.291Z,98268.22
2019-05-13T21:27:42.134Z,98278.73
2019-05-13T21:30:27.769Z,98275.31
2019-05-13T21:32:53.617Z,98275.31
2019-05-13T21:35:26.782Z,98272.00
2019-05-13T21:37:52.821Z,98270.59
2019-05-13T21:40:18.870Z,98275.38
2019-05-13T21:43:26.384Z,98258.24
2019-05-13T21:45:52.506Z,98270.64
2019-05-13T21:48:21.758Z,98262.05
2019-05-13T21:50:47.928Z,98266.38
2019-05-13T21:53:14.013Z,98259.52
2019-05-13T21:58:33.189Z,98254.13
2019-05-13T22:01:42.316Z,98255.22
2019-05-13T22:04:08.548Z,98253.45
2019-05-13T22:06:34.424Z,98253.45
2019-05-13T22:09:00.274Z,98251.09
2019-05-13T22:11:26.131Z,98251.23
2019-05-13T22:13:51.971Z,98250.83
2019-05-13T22:16:17.803Z,98247.38
2019-05-13T22:18:43.665Z,98237.73
2019-05-13T22:21:11.691Z,98244.69
2019-05-13T22:23:37.325Z,98237.84
2019-05-13T22:26:03.180Z,98241.01
2019-05-13T22:28:31.174Z,98233.12
2019-05-13T22:31:16.622Z,98225.87
2019-05-13T22:33:45.072Z,98225.87
2019-05-13T22:36:11.851Z,98234.70
2019-05-13T22:38:38.053Z,98228.84
2019-05-13T22:41:04.002Z,98223.30
2019-05-13T22:43:32.063Z,98222.20
2019-05-13T22:45:57.624Z,98217.51
2019-05-13T22:48:23.471Z,98215.60
2019-05-13T22:50:49.422Z,98213.87
2019-05-13T22:53:15.255Z,98208.52
2019-05-13T22:55:41.768Z,98213.34
2019-05-13T22:58:08.862Z,98206.55
2019-05-13T23:00:34.785Z,98203.08
2019-05-13T23:03:01.660Z,98194.41
2019-05-13T23:05:28.365Z,98199.64
2019-05-13T23:07:54.225Z,98195.34
2019-05-13T23:10:22.350Z,98197.47
2019-05-13T23:12:47.823Z,98187.14
2019-05-13T23:15:55.293Z,98199.09
2019-05-13T23:18:22.215Z,98194.02
2019-05-13T23:20:48.983Z,98198.33
2019-05-13T23:23:14.847Z,98198.94
2019-05-13T23:25:42.977Z,98194.92
2019-05-13T23:28:08.451Z,98192.08
2019-05-13T23:30:34.287Z,98195.34
2019-05-13T23:33:02.262Z,98190.72
2019-05-13T23:35:27.890Z,98185.73
2019-05-13T23:37:53.749Z,98186.78
2019-05-13T23:40:19.705Z,98175.90
2019-05-13T23:42:45.655Z,98168.27
2019-05-13T23:45:11.678Z,98171.46
2019-05-13T23:47:37.582Z,98171.67
2019-05-13T23:50:45.063Z,98165.50
2019-05-13T23:53:11.005Z,98161.27
2019-05-13T23:58:08.825Z,98149.03
